Details for Ryanair at LGTS




Go Back


Latest METAR
Local Time

LGTS 221050Z 30006KT CAVOK 27/11 Q1017 NOSIG
22/09/2018, 14:18:16

Description
Results
Ryanair Logo
Number of Pilots based at LGTS
0 Pilots Based here
Number of Ryanair Flights Departed from LGTS
2 Flights Departed
Number of Ryanair Flights Arrived at LGTS
2 Flights Arrived
Number of Ryanair Schedules Departing from LGTS
62 Schedules
Number of Ryanair Schedules Arriving at LGTS
62 Schedules
Number of Ryanair Schedules Departing from LGTS availible today
15 Schedules Today
Number of Ryanair Schedules Arriving at LGTS availible today
15 Schedules Today
Average Landing Rate at LGTS
-212 fpm
Ryanair Average Landing Rate at LGTS
-231 fpm
Total Fuel Purchased at LGTS by Ryanair
10,784.61 kgs / 23,775.75 lbs

Pilots Based at LGTS


Pilot ID
Pilot Name
Pilot Rank
No. of Flights
No. of Flying Hours
There are no pilots assigned to this hub!   Will you be the first?
Content